Adams Run, South Carolina
Current Conditions -  °F | °C
As of 3:35 AM on Saturday 22 Nov 2014 (Local Time) from KJZI Reporting Station
Clear Clear  
Wind Chill: 42°   Ceiling: Unl
Heat Index: 46°   Visibility: 10mi
Dew Point: 37°   Wind: 8mph
Humidity: 71%   Direction: 40°NE
Pressure: 30.48"   Gusts: NA
Location:  32.72°N, 80.35°W
Report Text: KJZI 220835Z AUTO 04007KT 10SM CLR 08/03 A3048 RMK A02 P000
Loading
Personal Weather Stations






























Interactive Weather Map New forecast layout! Learn more

10-Day Weather Forecast

Advertisements
Track Severe Weather on mobile